Центральная Азия

ЗЦ Центральной Азии - "Азия-Центр" включает в себя пять республик: Казахстан, Кыргызстан, Таджикистан, Туркменистан и Узбекистан.

Зональный Центр обслуживает все аэропорты Центральной Азии по принципу "Top-down"

ЗЦ включает в себя РПИ Актобе, Алматы, Астаны, Ашхабада, Бишкека, Дашогуза, Душанбе, Оша, Самарканда, Ташкента, Туркменабата, Туркменбаши и Шымкента

В сети ВАТСИМ обслуживание воздушного движения над территорией ЗЦ Центральной Азии осуществляет позиция RU-CEN_FSS, позывной "Азия-Центр", частота 132.850.

Лого Центральная Азия
Руководство

Evgeny Vygornitsky

Куратор
FSS региона
Обозначение
RU-CEN_FSS
Позывной
Азия-Центр
Частота
132.850
Примечание
Top-down
Инструкторы региона
Evgeny Vygornitsky (Supervisor)
Sergey Balandin (Senior Instructor)
Vitaliy Alekseyev (Instructor)
Включает в себя

РПИ Актобе
РПИ Алматы
РПИ Ашхабад
РПИ Бишкек
РПИ Дашогуз
РПИ Душанбе
РПИ Нур-Султан
РПИ Ош
РПИ Самарканд
РПИ Ташкент
РПИ Туркменабат
РПИ Туркменбаши
РПИ Шымкент

Диспетчеры региона

Диспетчер Рейтинг Допуски *
Dmitriy Bannov Instructor UAAA_CTR, UACN_CTR
Vitaliy Alekseyev Instructor UTSD_CTR, UTTR_CTR
Alikhan Aidarbek Student UAAA_TWR, UACC_TWR
Arman Maxatov Student 2 UACC_TWR, UTTT_TWR
Artem Kuzmenko Student UACC_GND
Kirill Ardatov Student 2 UACC_TWR
Sarsenov Shadiyar Student UACC_GND
Timur Gilmanov Student UTTT_GND

Аэропорты региона

ICAO Город Название Погода
UAAA Алматы Алматы UAAA 121730Z VRB01MPS 9999 FEW100 SCT200 24/11 Q1014 NOSIG
UCFM Бишкек Манас UCFM 121730Z VRB01MPS CAVOK 20/14 Q1013 R26/0///95 NOSIG
UAKK Караганда Караганда UAKK 121730Z 17002MPS CAVOK 13/10 Q1015 NOSIG RMK QFE714/0952
UACC Нур-Султан Нур-Султан UACC 121730Z 32003MPS CAVOK 20/14 Q1015 NOSIG RMK QFE730/0973
UTTT Ташкент Ташкент UTTT 121730Z 13004KT CAVOK 25/12 Q1009 R08L/CLRD70 NOSIG
UATT Актобе Актобе UATT 121730Z 01003MPS CAVOK 26/11 Q1018 NOSIG RMK QFE743/0991
UATG Атырау Атырау UATG 121730Z 31004MPS CAVOK 27/10 Q1016 NOSIG RMK QFE764/1018
UTAA Ашхабад Ашхабад UTAA 121700Z 21004KT 170V230 9999 NSC 30/07 Q1010 R88/70D NOSIG
UTSB Бухара Бухара UTSB 121730Z 35010KT CAVOK 26/09 Q1008 R01/CLRD70 NOSIG
UTAT Дашогуз Дашогуз UTAT 121700Z 03006KT CAVOK 28/12 Q1012 R08/CLRD70 NOSIG
UTDD Душанбе Душанбе UTDD 121730Z VRB02MPS 9999 NSC 27/10 Q1008 R09/CLRD// NOSIG RMK QFE688/0918
UAKD Жезказган Жезказган UAKD 121430Z 36003MPS 9999 SCT046 27/09 Q1015 NOSIG RMK QFE727/0970
UACK Кокшетау Кокшетау UACK 121130Z 28007MPS CAVOK 22/16 Q1014 NOSIG RMK QFE736/0982
UAUU Костанай Костанай UAUU 121730Z 33004MPS CAVOK 15/08 Q1018 NOSIG RMK QFE747/0997
UTAM Мары Мары UTAM 121700Z 36008KT 6000 NSC 28/11 Q1008 R88/CLRD70 NOSIG
UCFO Ош Ош UCFO 121730Z 18003MPS 7000 NSC 22/14 Q1011 R12/0///95 NOSIG
UASP Павлодар Павлодар UASP 121730Z VRB01MPS 9999 SCT053CB 17/15 Q1010 NOSIG RMK QFE747/0996
UACP Петропавловск Петропавловск UACP 121130Z 28004MPS 250V310 9999 BKN030CB 22/15 Q1013 NOSIG RMK QFE747/0997
UTSS Самарканд Самарканд UTSS 121730Z 14008KT 100V160 9999 NSC 25/08 Q1010 R09/CLRD70 NOSIG
UTST Термез Термез UTST 121730Z 21006KT CAVOK 28/05 Q1004 R25/CLRD70 NOSIG
UTAV Туркменабад Туркменабат UTAV 121700Z 35010KT CAVOK 30/07 Q1008 R31/CLRD70 NOSIG
UTAK Туркменбаши Туркменбаши UTAK 121700Z 09008KT CAVOK 31/M00 Q1011 R34L/CLRD70 NOSIG
UARR Уральск Уральск UARR 121730Z 36003MPS CAVOK 20/05 Q1020 NOSIG RMK QFE762/1016
UTNU Ургенч Ургенч UTNU 121730Z 36006KT CAVOK 24/13 Q1012 R31/CLRD70 NOSIG
UTDL Худжанд Худжанд UTDL 121730Z 25004MPS 9999 NSC 25/11 Q1009 R26/CLRD70 NOSIG RMK QFE719/0959
UAII Шымкент Шымкент UAII 121730Z 03003MPS CAVOK 28/03 Q1010 NOSIG RMK QFE722/0963
UTFA Андижан Андижан
UCFL Иссык-Куль Иссык-Куль UCFL 121730Z 02003MPS 9999 FEW030CB SCT099 18/13 Q1019 R07/CLRD95
UCFP Каракол Каракол
UTSK Карши Карши-Ханабад UTSK 121730Z 35008KT CAVOK 28/08 Q1006 R16/CLRD70
UTSA Навои Навои UTSA 121730Z 02010KT 9999 NSC 27/07 Q1009 R07/CLRD70 NOSIG
UTFN Наманган Наманган UTFN 121730Z 33004KT 8000 NSC 25/14 Q1009 R28/CLRD70 NOSIG
UTNN Нукус Нукус UTNN 121730Z 33006KT CAVOK 27/12 Q1013 R33/CLRD60 NOSIG
UTFF Фергана Фергана UTFF 121730Z 23004KT 9999 NSC 27/11 Q1009 R18/CLRD70